createdAt,value
2023-05-11T00:01:05.747Z,58.50
2023-05-11T00:03:53.239Z,64.45
2023-05-11T00:06:39.228Z,73.45
2023-05-11T00:09:25.934Z,97.05
2023-05-11T00:12:13.131Z,68.05
2023-05-11T00:14:59.520Z,90.78
2023-05-11T00:17:45.621Z,82.00
2023-05-11T00:20:33.117Z,109.90
2023-05-11T00:23:40.480Z,88.13
2023-05-11T00:26:26.653Z,97.85
2023-05-11T00:32:23.404Z,78.30
2023-05-11T00:35:10.768Z,87.65
2023-05-11T00:37:58.285Z,73.43
2023-05-11T00:44:12.134Z,80.13
2023-05-11T00:47:05.570Z,77.28
2023-05-11T00:53:13.123Z,73.35
2023-05-11T00:59:22.426Z,93.38
2023-05-11T01:02:14.820Z,97.68
2023-05-11T01:05:07.488Z,83.00
2023-05-11T01:08:05.823Z,99.18
2023-05-11T01:14:11.615Z,81.35
2023-05-11T01:17:10.654Z,74.68
2023-05-11T01:20:07.154Z,101.55
2023-05-11T01:23:26.199Z,107.90
2023-05-11T01:26:51.619Z,113.10
2023-05-11T01:30:12.011Z,103.88
2023-05-11T01:33:08.982Z,87.43
2023-05-11T01:36:04.693Z,106.85
2023-05-11T01:39:01.713Z,104.65
2023-05-11T01:41:55.773Z,95.30
2023-05-11T01:44:51.646Z,92.35
2023-05-11T01:47:46.304Z,100.63
2023-05-11T01:51:04.533Z,105.30
2023-05-11T01:53:57.817Z,94.80
2023-05-11T01:57:05.559Z,86.00
2023-05-11T01:59:57.668Z,93.30
2023-05-11T02:06:15.385Z,105.15
2023-05-11T02:09:10.613Z,95.03
2023-05-11T02:12:05.919Z,87.25
2023-05-11T02:15:01.190Z,88.93
2023-05-11T02:17:54.800Z,89.47
2023-05-11T02:20:48.606Z,82.32
2023-05-11T02:23:44.778Z,84.03
2023-05-11T02:26:37.331Z,110.78
2023-05-11T02:29:30.236Z,94.28
2023-05-11T02:32:23.764Z,95.07
2023-05-11T02:35:43.135Z,87.93
2023-05-11T02:38:36.886Z,107.32
2023-05-11T02:41:34.286Z,117.82
2023-05-11T02:44:29.852Z,123.60
2023-05-11T02:47:22.470Z,135.90
2023-05-11T02:50:15.402Z,141.07
2023-05-11T02:53:16.425Z,157.23
2023-05-11T02:56:10.276Z,116.97
2023-05-11T02:59:04.573Z,128.38
2023-05-11T03:01:57.085Z,173.90
2023-05-11T03:04:50.066Z,138.50
2023-05-11T03:07:43.823Z,152.18
2023-05-11T03:10:36.285Z,150.55
2023-05-11T03:13:29.682Z,132.00
2023-05-11T03:16:25.679Z,136.83
2023-05-11T03:19:18.616Z,137.90
2023-05-11T03:22:12.161Z,127.97
2023-05-11T03:25:06.391Z,121.35
2023-05-11T03:27:59.840Z,137.95
2023-05-11T03:30:53.902Z,146.57
2023-05-11T03:33:48.417Z,132.02
2023-05-11T03:36:41.540Z,124.85
2023-05-11T03:39:36.951Z,130.60
2023-05-11T03:42:31.906Z,135.35
2023-05-11T03:45:26.920Z,138.48
2023-05-11T03:48:21.696Z,143.13
2023-05-11T03:51:15.516Z,165.50
2023-05-11T03:54:08.302Z,137.43
2023-05-11T03:57:01.488Z,135.63
2023-05-11T03:59:54.213Z,114.60
2023-05-11T04:02:47.084Z,123.13
2023-05-11T04:05:40.373Z,114.38
2023-05-11T04:11:57.289Z,145.32
2023-05-11T04:17:54.946Z,109.20
2023-05-11T04:24:04.781Z,113.40
2023-05-11T04:30:11.693Z,129.20
2023-05-11T04:36:17.481Z,111.80
2023-05-11T04:39:11.035Z,102.47
2023-05-11T04:42:05.343Z,104.30
2023-05-11T04:44:58.242Z,94.25
2023-05-11T04:47:52.408Z,95.95
2023-05-11T04:50:44.793Z,114.57
2023-05-11T04:53:37.841Z,96.90
2023-05-11T04:56:29.854Z,76.72
2023-05-11T04:59:21.968Z,61.78
2023-05-11T05:02:14.347Z,68.68
2023-05-11T05:05:09.720Z,47.97
2023-05-11T05:11:22.782Z,39.15
2023-05-11T05:14:15.021Z,50.10
2023-05-11T05:17:08.267Z,53.95
2023-05-11T05:20:01.193Z,41.88
2023-05-11T05:26:07.775Z,29.85
2023-05-11T05:32:14.551Z,43.80
2023-05-11T05:35:07.559Z,47.75
2023-05-11T05:38:00.423Z,39.50
2023-05-11T05:40:53.591Z,34.25
2023-05-11T05:46:59.768Z,24.70
2023-05-11T05:52:58.455Z,20.40
2023-05-11T05:55:52.835Z,22.77
2023-05-11T05:58:45.328Z,21.52
2023-05-11T06:01:44.098Z,22.35
2023-05-11T06:05:04.062Z,22.85
2023-05-11T06:08:09.255Z,30.45
2023-05-11T06:11:03.653Z,29.17
2023-05-11T06:13:56.061Z,27.60
2023-05-11T06:16:49.240Z,28.55
2023-05-11T06:19:42.441Z,27.33
2023-05-11T06:22:37.215Z,28.48
2023-05-11T06:25:45.522Z,27.40
2023-05-11T06:28:38.215Z,22.50
2023-05-11T06:31:36.904Z,23.33
2023-05-11T06:34:30.051Z,23.52
2023-05-11T06:37:23.099Z,19.17
2023-05-11T06:40:44.565Z,19.40
2023-05-11T06:43:36.988Z,24.90
2023-05-11T06:47:07.365Z,21.00
2023-05-11T06:50:00.282Z,19.58
2023-05-11T06:53:07.147Z,19.35
2023-05-11T06:56:01.555Z,19.25
2023-05-11T07:02:40.257Z,19.67
2023-05-11T07:05:33.295Z,25.08
2023-05-11T07:08:25.875Z,21.45
2023-05-11T07:11:19.799Z,18.17
2023-05-11T07:14:12.087Z,20.95
2023-05-11T07:17:30.176Z,22.45
2023-05-11T07:20:23.637Z,21.80
2023-05-11T07:23:53.348Z,22.07
2023-05-11T07:26:47.259Z,23.52
2023-05-11T07:32:52.468Z,25.45
2023-05-11T07:35:45.590Z,24.98
2023-05-11T07:38:32.836Z,26.42
2023-05-11T07:41:26.670Z,24.83
2023-05-11T07:47:35.236Z,25.35
2023-05-11T07:50:29.132Z,20.10
2023-05-11T07:53:15.112Z,21.90
2023-05-11T07:56:09.650Z,22.45
2023-05-11T07:59:01.853Z,27.30
2023-05-11T08:05:16.740Z,19.95
2023-05-11T08:11:29.870Z,19.25
2023-05-11T08:17:29.198Z,19.77
2023-05-11T08:20:23.596Z,19.67
2023-05-11T08:23:18.088Z,16.25
2023-05-11T08:26:11.205Z,20.48
2023-05-11T08:29:04.207Z,19.80
2023-05-11T08:31:57.121Z,19.52
2023-05-11T08:34:50.600Z,20.58
2023-05-11T08:37:44.290Z,20.02
2023-05-11T08:43:49.529Z,20.45
2023-05-11T08:46:42.925Z,16.92
2023-05-11T08:49:36.241Z,16.70
2023-05-11T08:52:28.854Z,17.15
2023-05-11T08:55:23.646Z,20.65
2023-05-11T08:58:19.378Z,21.73
2023-05-11T09:01:13.049Z,15.02
2023-05-11T09:04:06.892Z,16.38
2023-05-11T09:07:00.225Z,15.15
2023-05-11T09:09:53.601Z,15.93
2023-05-11T09:16:23.664Z,15.35
2023-05-11T09:22:36.110Z,15.07
2023-05-11T09:28:36.213Z,11.18
2023-05-11T09:31:41.542Z,15.07
2023-05-11T09:34:34.303Z,16.02
2023-05-11T09:37:27.298Z,16.42
2023-05-11T09:40:27.322Z,20.50
2023-05-11T09:43:21.298Z,19.65
2023-05-11T09:46:22.077Z,19.48
2023-05-11T09:49:16.614Z,19.02
2023-05-11T09:52:09.326Z,18.05
2023-05-11T09:58:14.447Z,11.30
2023-05-11T10:01:07.404Z,11.50
2023-05-11T10:04:13.832Z,8.57
2023-05-11T10:07:25.859Z,8.02
2023-05-11T10:10:18.486Z,7.30
2023-05-11T10:13:11.150Z,7.03
2023-05-11T10:16:05.116Z,12.85
2023-05-11T10:18:57.924Z,9.25
2023-05-11T10:22:15.989Z,7.80
2023-05-11T10:25:10.841Z,5.75
2023-05-11T10:28:03.242Z,7.43
2023-05-11T10:30:53.477Z,7.22
2023-05-11T10:33:39.841Z,7.55
2023-05-11T10:36:27.211Z,6.38
2023-05-11T10:39:13.263Z,5.43
2023-05-11T10:42:15.538Z,5.05
2023-05-11T10:45:12.705Z,5.20
2023-05-11T10:51:21.827Z,6.65
2023-05-11T10:54:21.383Z,5.30
2023-05-11T10:57:14.590Z,5.07
2023-05-11T11:00:31.086Z,5.28
2023-05-11T11:03:17.174Z,4.57
2023-05-11T11:06:04.215Z,3.67
2023-05-11T11:09:04.228Z,4.57
2023-05-11T11:12:11.289Z,3.75
2023-05-11T11:15:06.196Z,5.00
2023-05-11T11:18:20.181Z,3.73
2023-05-11T11:21:16.050Z,3.22
2023-05-11T11:24:09.171Z,3.33
2023-05-11T11:27:02.953Z,3.88
2023-05-11T11:30:18.350Z,4.53
2023-05-11T11:33:33.359Z,5.28
2023-05-11T11:36:56.310Z,3.38
2023-05-11T11:40:08.889Z,4.00
2023-05-11T11:43:13.352Z,3.55
2023-05-11T11:46:07.684Z,4.47
2023-05-11T11:49:09.936Z,3.60
2023-05-11T11:52:03.944Z,2.88
2023-05-11T11:54:56.987Z,3.60
2023-05-11T11:57:51.177Z,4.85
2023-05-11T12:00:48.661Z,3.50
2023-05-11T12:06:59.325Z,3.50
2023-05-11T12:09:53.323Z,3.33
2023-05-11T12:13:03.561Z,3.55
2023-05-11T12:16:12.095Z,3.45
2023-05-11T12:19:22.252Z,3.22
2023-05-11T12:22:16.296Z,3.05
2023-05-11T12:25:11.268Z,4.97
2023-05-11T12:28:04.096Z,3.70
2023-05-11T12:30:59.878Z,2.95
2023-05-11T12:33:53.807Z,4.13
2023-05-11T12:36:49.072Z,9.38
2023-05-11T12:39:43.526Z,2.55
2023-05-11T12:42:36.566Z,3.03
2023-05-11T12:45:29.513Z,4.97
2023-05-11T12:48:22.833Z,3.58
2023-05-11T12:51:15.424Z,6.07
2023-05-11T12:54:08.223Z,3.42
2023-05-11T12:57:03.843Z,3.95
2023-05-11T13:00:12.721Z,4.35
2023-05-11T13:03:05.566Z,5.32
2023-05-11T13:06:05.931Z,4.60
2023-05-11T13:08:58.094Z,7.35
2023-05-11T13:11:51.427Z,7.32
2023-05-11T13:14:46.665Z,4.50
2023-05-11T13:17:41.234Z,4.22
2023-05-11T13:20:34.809Z,4.78
2023-05-11T13:23:26.876Z,5.13
2023-05-11T13:26:23.261Z,3.60
2023-05-11T13:29:16.276Z,5.18
2023-05-11T13:32:12.253Z,4.13
2023-05-11T13:35:05.889Z,6.88
2023-05-11T13:37:59.091Z,8.05
2023-05-11T13:40:52.222Z,6.50
2023-05-11T13:43:45.468Z,5.00
2023-05-11T13:46:38.135Z,5.20
2023-05-11T13:49:32.535Z,5.75
2023-05-11T13:52:25.235Z,6.15
2023-05-11T13:55:18.621Z,8.18
2023-05-11T13:58:11.089Z,6.10
2023-05-11T14:01:08.066Z,9.10
2023-05-11T14:04:01.100Z,7.20
2023-05-11T14:06:56.278Z,6.05
2023-05-11T14:13:02.537Z,5.28
2023-05-11T14:15:55.486Z,6.72
2023-05-11T14:18:48.449Z,5.78
2023-05-11T14:21:41.427Z,5.50
2023-05-11T14:27:49.200Z,7.85
2023-05-11T14:33:56.459Z,9.43
2023-05-11T14:36:50.731Z,8.23
2023-05-11T14:39:44.188Z,9.47
2023-05-11T14:42:37.780Z,9.82
2023-05-11T14:45:31.629Z,9.07
2023-05-11T14:48:24.162Z,9.93
2023-05-11T14:51:17.318Z,8.70
2023-05-11T14:54:10.109Z,10.90
2023-05-11T15:00:33.533Z,10.07
2023-05-11T15:03:26.580Z,10.45
2023-05-11T15:09:32.519Z,15.75
2023-05-11T15:12:25.463Z,9.55
2023-05-11T15:15:26.068Z,9.63
2023-05-11T15:18:20.527Z,7.03
2023-05-11T15:21:13.269Z,8.07
2023-05-11T15:24:08.677Z,7.40
2023-05-11T15:27:03.188Z,7.40
2023-05-11T15:29:56.252Z,7.20
2023-05-11T15:32:49.369Z,7.22
2023-05-11T15:35:43.981Z,7.07
2023-05-11T15:38:36.360Z,7.50
2023-05-11T15:44:50.241Z,6.30
2023-05-11T15:50:53.530Z,4.18
2023-05-11T15:57:02.504Z,4.32
2023-05-11T16:03:07.946Z,5.47
2023-05-11T16:09:18.179Z,5.40
2023-05-11T16:12:11.430Z,6.83
2023-05-11T16:15:03.656Z,7.13
2023-05-11T16:17:56.474Z,7.70
2023-05-11T16:20:49.137Z,6.47
2023-05-11T16:23:42.484Z,7.60
2023-05-11T16:26:36.485Z,6.30
2023-05-11T16:29:29.322Z,9.18
2023-05-11T16:35:55.488Z,10.10
2023-05-11T16:39:25.457Z,8.75
2023-05-11T16:42:20.989Z,9.00
2023-05-11T16:45:28.338Z,10.65
2023-05-11T16:48:21.420Z,8.73
2023-05-11T16:55:00.206Z,9.15
2023-05-11T16:58:10.861Z,11.02
2023-05-11T17:01:01.207Z,8.25
2023-05-11T17:07:15.950Z,8.55
2023-05-11T17:10:09.625Z,11.95
2023-05-11T17:13:01.956Z,10.30
2023-05-11T17:15:57.429Z,13.05
2023-05-11T17:18:51.909Z,10.35
2023-05-11T17:21:44.502Z,11.77
2023-05-11T17:24:37.323Z,16.75
2023-05-11T17:30:49.166Z,11.02
2023-05-11T17:37:00.360Z,14.43
2023-05-11T17:39:53.358Z,12.98
2023-05-11T17:42:46.361Z,14.40
2023-05-11T17:45:39.552Z,14.75
2023-05-11T17:48:32.515Z,20.75
2023-05-11T17:51:25.406Z,23.55
2023-05-11T17:54:20.089Z,18.35
2023-05-11T17:57:49.451Z,23.33
2023-05-11T18:00:42.239Z,36.45
2023-05-11T18:03:35.207Z,25.83
2023-05-11T18:09:42.862Z,28.83
2023-05-11T18:12:35.523Z,36.22
2023-05-11T18:15:34.791Z,26.30
2023-05-11T18:18:27.923Z,37.17
2023-05-11T18:21:20.189Z,40.65
2023-05-11T18:27:35.601Z,42.47
2023-05-11T18:30:28.590Z,47.33
2023-05-11T18:33:21.174Z,52.28
2023-05-11T18:36:15.626Z,51.85
2023-05-11T18:39:08.164Z,48.53
2023-05-11T18:42:01.056Z,53.17
2023-05-11T18:48:15.551Z,55.67
2023-05-11T18:54:18.251Z,42.63
2023-05-11T18:57:11.320Z,60.95
2023-05-11T19:00:05.382Z,60.22
2023-05-11T19:02:58.427Z,51.33
2023-05-11T19:05:52.543Z,45.72
2023-05-11T19:08:45.484Z,65.63
2023-05-11T19:11:41.001Z,58.35
2023-05-11T19:14:34.663Z,57.53
2023-05-11T19:17:27.264Z,74.85
2023-05-11T19:20:20.918Z,54.70
2023-05-11T19:23:14.680Z,70.53
2023-05-11T19:26:07.150Z,80.78
2023-05-11T19:29:00.529Z,90.95
2023-05-11T19:31:53.479Z,89.10
2023-05-11T19:38:35.237Z,60.38
2023-05-11T19:44:20.599Z,78.05
2023-05-11T19:50:34.596Z,78.45
2023-05-11T19:53:27.727Z,84.10
2023-05-11T19:56:21.978Z,92.03
2023-05-11T19:59:14.568Z,101.68
2023-05-11T20:02:33.199Z,82.40
2023-05-11T20:05:26.159Z,99.05
2023-05-11T20:08:19.134Z,87.07
2023-05-11T20:11:12.337Z,82.53
2023-05-11T20:14:06.759Z,85.22
2023-05-11T20:16:57.533Z,76.50
2023-05-11T20:19:51.084Z,88.07
2023-05-11T20:22:43.200Z,93.50
2023-05-11T20:29:14.053Z,96.35
2023-05-11T20:34:06.897Z,108.45
2023-05-11T20:35:56.385Z,72.32
2023-05-11T20:38:49.841Z,113.75
2023-05-11T20:41:41.948Z,85.88
2023-05-11T20:44:35.402Z,100.05
2023-05-11T20:47:23.819Z,87.70
2023-05-11T20:50:16.600Z,95.40
2023-05-11T20:53:46.485Z,129.85
2023-05-11T20:56:39.520Z,96.68
2023-05-11T21:02:40.454Z,100.55
2023-05-11T21:05:33.116Z,144.55
2023-05-11T21:08:27.079Z,98.32
2023-05-11T21:11:19.253Z,133.20
2023-05-11T21:14:12.590Z,145.23
2023-05-11T21:17:05.335Z,146.85
2023-05-11T21:19:59.358Z,115.10
2023-05-11T21:22:52.512Z,148.45
2023-05-11T21:25:45.454Z,148.85
2023-05-11T21:31:49.255Z,173.45
2023-05-11T21:34:42.430Z,154.05
2023-05-11T21:37:36.415Z,112.65
2023-05-11T21:40:29.457Z,127.45
2023-05-11T21:43:22.793Z,147.50
2023-05-11T21:46:15.195Z,119.13
2023-05-11T21:49:09.023Z,128.88
2023-05-11T21:52:01.296Z,177.85
2023-05-11T21:54:55.529Z,173.38
2023-05-11T22:01:01.316Z,164.25
2023-05-11T22:03:54.492Z,170.73
2023-05-11T22:06:49.938Z,136.70
2023-05-11T22:09:42.571Z,189.02
2023-05-11T22:12:36.569Z,277.88
2023-05-11T22:15:29.593Z,199.98
2023-05-11T22:21:34.849Z,170.95
2023-05-11T22:24:27.572Z,152.60
2023-05-11T22:27:20.345Z,125.40
2023-05-11T22:33:50.825Z,117.90
2023-05-11T22:37:20.507Z,110.43
2023-05-11T22:40:13.693Z,119.57
2023-05-11T22:43:06.144Z,127.10
2023-05-11T22:45:58.975Z,140.57
2023-05-11T22:48:52.702Z,128.73
2023-05-11T22:54:57.787Z,98.93
2023-05-11T23:01:02.678Z,111.70
2023-05-11T23:03:56.796Z,122.18
2023-05-11T23:10:10.891Z,404.73
2023-05-11T23:13:04.693Z,374.42
2023-05-11T23:15:57.170Z,415.75
2023-05-11T23:18:50.751Z,476.17
2023-05-11T23:21:44.519Z,432.17
2023-05-11T23:24:40.264Z,395.33
2023-05-11T23:27:32.898Z,362.30
2023-05-11T23:30:25.449Z,320.60
2023-05-11T23:33:24.903Z,332.17
2023-05-11T23:36:10.897Z,142.93
2023-05-11T23:42:08.882Z,161.23
2023-05-11T23:48:07.918Z,318.58
2023-05-11T23:50:54.270Z,218.13
2023-05-11T23:53:40.221Z,318.70
2023-05-11T23:56:27.271Z,288.40
2023-05-11T23:59:14.576Z,380.30
